createdAt,value
2023-01-22T00:00:39.767Z,9.50
2023-01-22T00:05:43.251Z,9.50
2023-01-22T00:10:51.841Z,9.50
2023-01-22T00:15:57.713Z,9.50
2023-01-22T00:21:01.526Z,9.50
2023-01-22T00:26:11.100Z,9.50
2023-01-22T00:31:15.825Z,9.50
2023-01-22T00:36:21.848Z,9.50
2023-01-22T00:41:26.541Z,9.50
2023-01-22T00:46:30.369Z,9.50
2023-01-22T00:51:34.767Z,9.50
2023-01-22T00:56:39.597Z,9.50
2023-01-22T01:01:43.054Z,9.50
2023-01-22T01:06:46.586Z,9.40
2023-01-22T01:11:51.353Z,9.40
2023-01-22T01:16:56.742Z,9.40
2023-01-22T01:22:00.237Z,9.40
2023-01-22T01:27:05.165Z,9.50
2023-01-22T01:32:08.591Z,9.50
2023-01-22T01:37:12.141Z,9.50
2023-01-22T01:42:22.384Z,9.50
2023-01-22T01:47:32.761Z,9.40
2023-01-22T01:52:36.192Z,9.40
2023-01-22T01:57:42.627Z,9.40
2023-01-22T02:02:46.374Z,9.50
2023-01-22T02:07:49.823Z,9.40
2023-01-22T02:12:58.578Z,9.40
2023-01-22T02:18:02.444Z,9.40
2023-01-22T02:23:09.028Z,9.50
2023-01-22T02:28:12.452Z,9.40
2023-01-22T02:33:18.184Z,9.50
2023-01-22T02:38:23.011Z,9.50
2023-01-22T02:43:26.649Z,9.50
2023-01-22T02:48:30.174Z,9.40
2023-01-22T02:53:35.005Z,9.40
2023-01-22T02:58:39.360Z,9.40
2023-01-22T03:03:42.830Z,9.50
2023-01-22T03:08:47.657Z,9.50
2023-01-22T03:14:08.757Z,9.50
2023-01-22T03:19:30.152Z,9.40
2023-01-22T03:24:35.375Z,9.40
2023-01-22T03:29:39.284Z,9.40
2023-01-22T03:34:44.949Z,9.40
2023-01-22T03:39:50.162Z,9.40
2023-01-22T03:45:04.420Z,9.40
2023-01-22T03:50:11.199Z,9.30
2023-01-22T03:55:17.035Z,9.40
2023-01-22T04:00:21.632Z,9.30
2023-01-22T04:05:27.086Z,9.40
2023-01-22T04:10:32.804Z,9.40
2023-01-22T04:15:38.947Z,9.30
2023-01-22T04:20:54.185Z,9.30
2023-01-22T04:26:13.469Z,9.30
2023-01-22T04:31:17.164Z,9.30
2023-01-22T04:36:25.671Z,9.20
2023-01-22T04:41:32.610Z,9.20
2023-01-22T04:46:36.082Z,9.20
2023-01-22T04:51:39.444Z,9.20
2023-01-22T04:56:45.155Z,9.20
2023-01-22T05:01:51.183Z,9.30
2023-01-22T05:06:56.167Z,9.30
2023-01-22T05:12:02.955Z,9.30
2023-01-22T05:17:11.260Z,9.30
2023-01-22T05:22:15.308Z,9.40
2023-01-22T05:27:20.258Z,9.30
2023-01-22T05:32:30.991Z,9.30
2023-01-22T05:37:35.221Z,9.40
2023-01-22T05:42:41.611Z,9.40
2023-01-22T05:47:55.610Z,9.40
2023-01-22T05:53:13.429Z,9.40
2023-01-22T05:58:18.578Z,9.40
2023-01-22T06:03:24.389Z,9.40
2023-01-22T06:08:29.510Z,9.40
2023-01-22T06:13:34.902Z,9.50
2023-01-22T06:18:46.019Z,9.50
2023-01-22T06:23:51.971Z,9.50
2023-01-22T06:28:56.823Z,9.50
2023-01-22T06:34:00.503Z,9.50
2023-01-22T06:39:03.975Z,9.50
2023-01-22T06:44:31.856Z,9.50
2023-01-22T06:49:35.617Z,9.50
2023-01-22T06:54:39.094Z,9.50
2023-01-22T06:59:44.129Z,9.50
2023-01-22T07:04:47.546Z,9.50
2023-01-22T07:09:51.071Z,9.50
2023-01-22T07:14:57.447Z,9.50
2023-01-22T07:20:00.964Z,9.50
2023-01-22T07:25:05.009Z,9.40
2023-01-22T07:30:11.830Z,9.40
2023-01-22T07:35:15.311Z,9.40
2023-01-22T07:40:19.622Z,9.40
2023-01-22T07:45:26.144Z,9.40
2023-01-22T07:50:31.171Z,9.40
2023-01-22T07:55:34.686Z,9.40
2023-01-22T08:00:39.792Z,9.30
2023-01-22T08:05:44.184Z,9.30
2023-01-22T08:10:48.205Z,9.40
2023-01-22T08:15:55.111Z,9.40
2023-01-22T08:21:01.545Z,9.40
2023-01-22T08:26:05.539Z,9.40
2023-01-22T08:31:19.175Z,9.40
2023-01-22T08:36:23.089Z,9.40
2023-01-22T08:41:27.019Z,9.40
2023-01-22T08:46:32.170Z,9.40
2023-01-22T08:51:36.326Z,9.40
2023-01-22T08:56:40.027Z,9.30
2023-01-22T09:01:44.979Z,9.30
2023-01-22T09:06:48.303Z,9.30
2023-01-22T09:11:51.617Z,9.30
2023-01-22T09:16:56.474Z,9.30
2023-01-22T09:22:06.297Z,9.30
2023-01-22T09:27:10.114Z,9.30
2023-01-22T09:32:14.918Z,9.30
2023-01-22T09:37:24.374Z,9.30
2023-01-22T09:42:35.191Z,9.40
2023-01-22T09:47:43.600Z,9.40
2023-01-22T09:52:48.384Z,9.40
2023-01-22T09:57:56.355Z,9.50
2023-01-22T10:03:05.470Z,9.50
2023-01-22T10:08:14.944Z,9.50
2023-01-22T10:13:21.168Z,9.60
2023-01-22T10:18:32.430Z,9.60
2023-01-22T10:23:36.053Z,9.60
2023-01-22T10:28:44.969Z,9.70
2023-01-22T10:33:57.697Z,9.70
2023-01-22T10:39:11.085Z,9.80
2023-01-22T10:44:23.975Z,9.90
2023-01-22T10:49:30.102Z,9.90
2023-01-22T10:54:36.881Z,9.90
2023-01-22T10:59:40.889Z,10.00
2023-01-22T11:04:45.852Z,10.00
2023-01-22T11:09:56.815Z,9.90
2023-01-22T11:15:08.011Z,9.90
2023-01-22T11:20:22.773Z,9.90
2023-01-22T11:25:27.724Z,9.90
2023-01-22T11:30:53.833Z,10.00
2023-01-22T11:36:04.222Z,10.00
2023-01-22T11:41:28.926Z,10.00
2023-01-22T11:46:44.273Z,10.00
2023-01-22T11:51:59.638Z,10.10
2023-01-22T11:57:14.860Z,10.10
2023-01-22T12:02:38.562Z,10.10
2023-01-22T12:08:09.063Z,10.20
2023-01-22T12:13:40.074Z,10.20
2023-01-22T12:19:04.649Z,10.20
2023-01-22T12:24:15.715Z,10.20
2023-01-22T12:29:24.743Z,10.20
2023-01-22T12:34:33.598Z,10.20
2023-01-22T12:39:58.021Z,10.10
2023-01-22T12:45:07.996Z,10.10
2023-01-22T12:50:20.397Z,10.10
2023-01-22T12:55:32.471Z,10.00
2023-01-22T13:00:39.446Z,10.00
2023-01-22T13:05:47.283Z,10.00
2023-01-22T13:10:58.366Z,10.00
2023-01-22T13:16:06.131Z,10.00
2023-01-22T13:21:12.197Z,10.00
2023-01-22T13:26:23.058Z,10.10
2023-01-22T13:31:27.113Z,10.10
2023-01-22T13:36:32.730Z,10.20
2023-01-22T13:41:41.019Z,10.10
2023-01-22T13:46:45.075Z,10.10
2023-01-22T13:51:51.384Z,10.20
2023-01-22T13:56:57.263Z,10.20
2023-01-22T14:02:13.895Z,10.20
2023-01-22T14:07:26.864Z,10.20
2023-01-22T14:12:32.633Z,10.20
2023-01-22T14:17:36.720Z,10.20
2023-01-22T14:22:42.502Z,10.30
2023-01-22T14:27:58.541Z,10.30
2023-01-22T14:33:03.279Z,10.40
2023-01-22T14:38:07.513Z,10.40
2023-01-22T14:43:28.734Z,10.40
2023-01-22T14:49:00.897Z,10.40
2023-01-22T14:54:19.455Z,10.40
2023-01-22T14:59:43.575Z,10.40
2023-01-22T15:04:56.558Z,10.30
2023-01-22T15:10:20.190Z,10.30
2023-01-22T15:15:27.835Z,10.30
2023-01-22T15:20:34.704Z,10.30
2023-01-22T15:25:39.841Z,10.30
2023-01-22T15:30:47.047Z,10.30
2023-01-22T15:35:51.135Z,10.30
2023-01-22T15:41:04.888Z,10.30
2023-01-22T15:46:10.475Z,10.30
2023-01-22T15:51:16.399Z,10.20
2023-01-22T15:56:22.097Z,10.20
2023-01-22T16:01:29.891Z,10.20
2023-01-22T16:06:36.021Z,10.20
2023-01-22T16:11:43.958Z,10.10
2023-01-22T16:16:52.125Z,10.10
2023-01-22T16:21:56.861Z,10.20
2023-01-22T16:27:05.191Z,10.10
2023-01-22T16:32:13.563Z,10.10
2023-01-22T16:37:18.379Z,10.10
2023-01-22T16:42:23.831Z,10.10
2023-01-22T16:47:29.733Z,10.10
2023-01-22T16:52:35.687Z,10.10
2023-01-22T16:57:40.975Z,10.10
2023-01-22T17:02:47.970Z,10.20
2023-01-22T17:07:52.900Z,10.20
2023-01-22T17:12:58.053Z,10.20
2023-01-22T17:18:04.200Z,10.20
2023-01-22T17:23:09.124Z,10.20
2023-01-22T17:28:14.305Z,10.30
2023-01-22T17:33:22.393Z,10.20
2023-01-22T17:38:28.073Z,10.20
2023-01-22T17:43:32.661Z,10.20
2023-01-22T17:48:40.924Z,10.10
2023-01-22T17:53:49.798Z,10.10
2023-01-22T17:58:59.046Z,10.10
2023-01-22T18:04:11.339Z,10.10
2023-01-22T18:09:19.162Z,10.10
2023-01-22T18:14:26.267Z,10.00
2023-01-22T18:19:32.864Z,10.00
2023-01-22T18:24:37.930Z,10.00
2023-01-22T18:29:43.916Z,9.90
2023-01-22T18:34:52.731Z,9.80
2023-01-22T18:39:57.847Z,9.90
2023-01-22T18:45:03.868Z,9.90
2023-01-22T18:50:17.294Z,10.00
2023-01-22T18:55:23.925Z,10.00
2023-01-22T19:00:28.741Z,10.10
2023-01-22T19:05:35.599Z,10.20
2023-01-22T19:10:40.690Z,10.20
2023-01-22T19:15:50.450Z,10.20
2023-01-22T19:21:07.717Z,10.30
2023-01-22T19:26:17.685Z,10.30
2023-01-22T19:31:26.838Z,10.30
2023-01-22T19:36:38.685Z,10.30
2023-01-22T19:41:45.207Z,10.20
2023-01-22T19:46:50.256Z,10.20
2023-01-22T19:51:56.450Z,10.30
2023-01-22T19:57:02.928Z,10.30
2023-01-22T20:02:09.796Z,10.30
2023-01-22T20:07:17.450Z,10.30
2023-01-22T20:12:25.101Z,10.30
2023-01-22T20:17:33.578Z,10.20
2023-01-22T20:22:43.987Z,10.20
2023-01-22T20:27:48.914Z,10.30
2023-01-22T20:32:56.855Z,10.30
2023-01-22T20:38:03.086Z,10.30
2023-01-22T20:43:09.543Z,10.30
2023-01-22T20:48:14.479Z,10.40
2023-01-22T20:53:20.760Z,10.40
2023-01-22T20:58:25.678Z,10.40
2023-01-22T21:03:29.971Z,10.40
2023-01-22T21:08:36.675Z,10.40
2023-01-22T21:13:42.051Z,10.40
2023-01-22T21:18:49.199Z,10.50
2023-01-22T21:23:57.112Z,10.50
2023-01-22T21:29:03.695Z,10.50
2023-01-22T21:34:10.692Z,10.50
2023-01-22T21:39:20.144Z,10.50
2023-01-22T21:44:41.678Z,10.40
2023-01-22T21:49:47.009Z,10.50
2023-01-22T21:54:52.643Z,10.40
2023-01-22T21:59:58.408Z,10.50
2023-01-22T22:05:01.926Z,10.50
2023-01-22T22:10:11.763Z,10.50
2023-01-22T22:15:15.202Z,10.50
2023-01-22T22:20:19.263Z,10.50
2023-01-22T22:25:24.323Z,10.40
2023-01-22T22:30:28.585Z,10.50
2023-01-22T22:35:34.539Z,10.40
2023-01-22T22:40:39.399Z,10.30
2023-01-22T22:45:42.923Z,10.30
2023-01-22T22:50:46.273Z,10.30
2023-01-22T22:55:51.014Z,10.20
2023-01-22T23:00:54.585Z,10.20
2023-01-22T23:05:58.034Z,10.30
2023-01-22T23:11:03.526Z,10.30
2023-01-22T23:16:11.739Z,10.30
2023-01-22T23:21:21.125Z,10.30
2023-01-22T23:26:30.134Z,10.30
2023-01-22T23:31:36.374Z,10.30
2023-01-22T23:36:43.364Z,10.20
2023-01-22T23:41:49.886Z,10.20
2023-01-22T23:46:56.715Z,10.10
2023-01-22T23:52:00.120Z,10.10
2023-01-22T23:57:05.100Z,10.10
